createdAt,value
2023-03-14T00:01:25.303Z,96.40
2023-03-14T00:04:23.058Z,97.30
2023-03-14T00:07:20.933Z,97.40
2023-03-14T00:10:19.241Z,97.30
2023-03-14T00:13:17.116Z,97.30
2023-03-14T00:16:15.053Z,97.30
2023-03-14T00:19:13.055Z,97.40
2023-03-14T00:22:10.791Z,97.10
2023-03-14T00:25:11.153Z,97.70
2023-03-14T00:28:08.854Z,98.50
2023-03-14T00:31:08.925Z,98.50
2023-03-14T00:34:06.710Z,97.90
2023-03-14T00:37:04.546Z,96.50
2023-03-14T00:40:02.286Z,96.20
2023-03-14T00:43:00.132Z,95.80
2023-03-14T00:45:58.865Z,95.20
2023-03-14T00:48:56.726Z,95.70
2023-03-14T00:51:54.825Z,96.20
2023-03-14T00:54:52.713Z,95.40
2023-03-14T00:57:50.438Z,95.00
2023-03-14T01:00:48.551Z,95.10
2023-03-14T01:03:47.237Z,95.20
2023-03-14T01:06:45.070Z,95.20
2023-03-14T01:09:42.798Z,95.30
2023-03-14T01:12:40.693Z,95.30
2023-03-14T01:15:39.589Z,95.30
2023-03-14T01:18:38.753Z,95.90
2023-03-14T01:21:37.424Z,95.90
2023-03-14T01:24:35.322Z,96.00
2023-03-14T01:27:33.042Z,96.10
2023-03-14T01:30:30.887Z,96.10
2023-03-14T01:37:05.574Z,96.30
2023-03-14T01:40:05.285Z,96.00
2023-03-14T01:43:20.041Z,95.70
2023-03-14T01:46:22.963Z,94.80
2023-03-14T01:49:31.615Z,94.30
2023-03-14T01:52:36.718Z,93.90
2023-03-14T01:55:34.609Z,93.40
2023-03-14T01:58:35.818Z,93.20
2023-03-14T02:01:33.906Z,93.70
2023-03-14T02:04:36.476Z,94.00
2023-03-14T02:07:41.825Z,94.50
2023-03-14T02:10:43.660Z,94.70
2023-03-14T02:13:41.636Z,94.80
2023-03-14T02:16:39.537Z,94.50
2023-03-14T02:19:50.802Z,94.60
2023-03-14T02:22:49.330Z,94.40
2023-03-14T02:25:56.244Z,94.30
2023-03-14T02:28:55.006Z,94.50
2023-03-14T02:31:53.040Z,94.70
2023-03-14T02:34:56.592Z,94.60
2023-03-14T02:38:00.963Z,94.70
2023-03-14T02:40:58.794Z,94.40
2023-03-14T02:43:56.621Z,93.80
2023-03-14T02:46:54.492Z,93.40
2023-03-14T02:49:55.351Z,93.40
2023-03-14T02:52:53.125Z,92.90
2023-03-14T02:55:51.812Z,92.80
2023-03-14T02:58:49.638Z,93.90
2023-03-14T03:01:47.472Z,94.90
2023-03-14T03:04:45.371Z,96.90
2023-03-14T03:07:43.203Z,97.10
2023-03-14T03:10:40.957Z,96.70
2023-03-14T03:13:38.865Z,95.70
2023-03-14T03:16:36.643Z,94.80
2023-03-14T03:19:36.309Z,94.20
2023-03-14T03:22:34.791Z,94.10
2023-03-14T03:25:33.262Z,95.30
2023-03-14T03:28:31.106Z,95.10
2023-03-14T03:31:30.229Z,94.40
2023-03-14T03:34:29.683Z,95.70
2023-03-14T03:37:27.700Z,95.40
2023-03-14T03:40:25.502Z,95.30
2023-03-14T03:43:23.326Z,94.50
2023-03-14T03:46:21.379Z,93.40
2023-03-14T03:49:19.329Z,93.60
2023-03-14T03:52:17.111Z,93.40
2023-03-14T03:55:15.045Z,93.30
2023-03-14T03:58:12.753Z,93.00
2023-03-14T04:01:12.303Z,92.20
2023-03-14T04:04:10.431Z,92.00
2023-03-14T04:07:08.561Z,92.60
2023-03-14T04:10:06.705Z,92.50
2023-03-14T04:13:04.730Z,92.00
2023-03-14T04:16:02.639Z,92.10
2023-03-14T04:19:00.555Z,91.00
2023-03-14T04:21:58.238Z,90.60
2023-03-14T04:24:56.144Z,90.20
2023-03-14T04:27:53.967Z,90.90
2023-03-14T04:30:51.866Z,90.80
2023-03-14T04:33:50.188Z,90.60
2023-03-14T04:36:48.084Z,91.40
2023-03-14T04:39:45.794Z,91.40
2023-03-14T04:42:43.746Z,90.60
2023-03-14T04:45:45.490Z,90.20
2023-03-14T04:48:43.565Z,90.90
2023-03-14T04:51:41.304Z,90.60
2023-03-14T04:54:39.150Z,90.10
2023-03-14T04:57:36.950Z,90.00
2023-03-14T05:00:35.012Z,90.20
2023-03-14T05:03:32.730Z,89.40
2023-03-14T05:06:30.539Z,89.80
2023-03-14T05:09:28.611Z,91.00
2023-03-14T05:12:26.615Z,91.20
2023-03-14T05:15:24.428Z,92.70
2023-03-14T05:18:22.598Z,92.70
2023-03-14T05:21:20.411Z,92.40
2023-03-14T05:24:18.346Z,94.00
2023-03-14T05:27:16.072Z,94.80
2023-03-14T05:30:14.190Z,94.00
2023-03-14T05:33:11.907Z,93.20
2023-03-14T05:36:10.641Z,91.70
2023-03-14T05:39:08.378Z,91.80
2023-03-14T05:42:06.453Z,92.40
2023-03-14T05:45:04.451Z,92.40
2023-03-14T05:48:02.578Z,91.90
2023-03-14T05:51:00.863Z,91.30
2023-03-14T05:53:58.789Z,91.00
2023-03-14T05:56:56.546Z,91.10
2023-03-14T05:59:54.438Z,90.00
2023-03-14T06:02:52.304Z,89.20
2023-03-14T06:05:52.962Z,89.10
2023-03-14T06:08:51.531Z,87.50
2023-03-14T06:11:49.435Z,85.90
2023-03-14T06:14:47.205Z,86.30
2023-03-14T06:17:45.025Z,90.00
2023-03-14T06:20:42.945Z,89.70
2023-03-14T06:23:40.864Z,86.60
2023-03-14T06:26:38.621Z,86.40
2023-03-14T06:29:36.540Z,87.00
2023-03-14T06:32:34.331Z,84.90
2023-03-14T06:35:32.498Z,84.10
2023-03-14T06:38:30.235Z,83.40
2023-03-14T06:41:28.362Z,82.50
2023-03-14T06:44:26.230Z,82.90
2023-03-14T06:47:24.093Z,84.40
2023-03-14T06:50:23.648Z,84.60
2023-03-14T06:53:21.501Z,83.80
2023-03-14T06:56:19.212Z,83.30
2023-03-14T06:59:17.224Z,82.70
2023-03-14T07:02:15.634Z,82.30
2023-03-14T07:05:13.583Z,82.30
2023-03-14T07:08:11.350Z,85.00
2023-03-14T07:11:09.617Z,84.50
2023-03-14T07:14:07.513Z,85.20
2023-03-14T07:17:05.356Z,83.20
2023-03-14T07:20:07.258Z,84.20
2023-03-14T07:23:05.203Z,83.40
2023-03-14T07:26:03.539Z,83.10
2023-03-14T07:29:01.508Z,84.40
2023-03-14T07:31:59.263Z,85.50
2023-03-14T07:34:57.862Z,85.80
2023-03-14T07:37:55.593Z,86.00
2023-03-14T07:41:00.902Z,86.80
2023-03-14T07:43:58.665Z,88.00
2023-03-14T07:46:56.677Z,89.10
2023-03-14T07:49:54.447Z,89.60
2023-03-14T07:52:52.643Z,89.30
2023-03-14T07:55:51.918Z,88.90
2023-03-14T07:58:49.817Z,87.90
2023-03-14T08:01:47.992Z,90.00
2023-03-14T08:04:45.890Z,89.90
2023-03-14T08:07:43.635Z,89.90
2023-03-14T08:10:41.579Z,87.80
2023-03-14T08:13:41.432Z,87.40
2023-03-14T08:16:39.264Z,88.70
2023-03-14T08:19:37.109Z,88.30
2023-03-14T08:22:34.923Z,87.20
2023-03-14T08:25:33.295Z,87.70
2023-03-14T08:28:34.139Z,88.10
2023-03-14T08:31:32.159Z,89.30
2023-03-14T08:34:30.045Z,87.70
2023-03-14T08:37:28.593Z,87.70
2023-03-14T08:40:26.710Z,87.50
2023-03-14T08:43:24.660Z,87.30
2023-03-14T08:46:22.560Z,87.20
2023-03-14T08:49:20.383Z,87.10
2023-03-14T08:52:18.386Z,86.60
2023-03-14T08:55:16.389Z,87.40
2023-03-14T08:58:14.293Z,87.70
2023-03-14T09:01:12.921Z,86.40
2023-03-14T09:04:11.220Z,86.60
2023-03-14T09:07:08.893Z,86.60
2023-03-14T09:10:07.753Z,86.30
2023-03-14T09:13:05.706Z,86.10
2023-03-14T09:16:03.529Z,85.30
2023-03-14T09:19:01.360Z,87.40
2023-03-14T09:21:59.152Z,87.40
2023-03-14T09:24:56.851Z,88.00
2023-03-14T09:27:54.783Z,86.00
2023-03-14T09:30:52.613Z,87.10
2023-03-14T09:33:50.538Z,86.30
2023-03-14T09:36:48.269Z,86.20
2023-03-14T09:39:46.109Z,84.80
2023-03-14T09:42:44.162Z,85.70
2023-03-14T09:45:44.401Z,85.70
2023-03-14T09:48:43.098Z,86.50
2023-03-14T09:51:42.378Z,85.50
2023-03-14T09:54:59.858Z,85.40
2023-03-14T09:58:02.188Z,86.30
2023-03-14T10:01:02.983Z,85.80
2023-03-14T10:04:07.251Z,85.80
2023-03-14T10:07:05.124Z,84.40
2023-03-14T10:10:03.521Z,84.00
2023-03-14T10:13:16.504Z,83.80
2023-03-14T10:16:15.849Z,84.50
2023-03-14T10:19:17.037Z,83.80
2023-03-14T10:22:17.418Z,85.00
2023-03-14T10:25:29.226Z,85.20
2023-03-14T10:28:33.118Z,84.30
2023-03-14T10:31:56.150Z,83.80
2023-03-14T10:35:22.084Z,85.20
2023-03-14T10:38:20.210Z,84.30
2023-03-14T10:41:27.455Z,83.80
2023-03-14T10:44:34.397Z,84.30
2023-03-14T10:47:41.578Z,83.40
2023-03-14T10:50:44.286Z,83.90
2023-03-14T10:53:46.274Z,84.30
2023-03-14T10:56:44.022Z,85.10
2023-03-14T10:59:45.680Z,84.80
2023-03-14T11:03:14.243Z,84.70
2023-03-14T11:06:25.731Z,84.80
2023-03-14T11:09:44.404Z,84.80
2023-03-14T11:13:13.102Z,85.20
2023-03-14T11:16:32.524Z,85.50
2023-03-14T11:19:50.022Z,85.30
2023-03-14T11:23:06.444Z,84.90
2023-03-14T11:26:27.148Z,85.20
2023-03-14T11:29:41.857Z,84.70
2023-03-14T11:32:54.831Z,85.10
2023-03-14T11:36:19.220Z,85.30
2023-03-14T11:39:19.470Z,84.70
2023-03-14T11:42:19.158Z,85.30
2023-03-14T11:45:36.092Z,85.90
2023-03-14T11:48:43.973Z,87.10
2023-03-14T11:51:47.977Z,86.30
2023-03-14T11:55:16.996Z,85.50
2023-03-14T11:58:22.778Z,85.30
2023-03-14T12:01:25.850Z,85.80
2023-03-14T12:04:52.743Z,85.70
2023-03-14T12:08:25.832Z,85.80
2023-03-14T12:11:45.304Z,86.00
2023-03-14T12:14:52.891Z,86.00
2023-03-14T12:17:57.052Z,86.40
2023-03-14T12:20:59.329Z,86.30
2023-03-14T12:23:59.436Z,86.50
2023-03-14T12:27:20.477Z,87.00
2023-03-14T12:30:42.874Z,87.30
2023-03-14T12:33:40.856Z,87.30
2023-03-14T12:37:09.507Z,88.10
2023-03-14T12:40:22.963Z,88.00
2023-03-14T12:43:36.659Z,88.20
2023-03-14T12:46:34.760Z,89.30
2023-03-14T12:49:34.523Z,89.00
2023-03-14T12:52:47.450Z,89.60
2023-03-14T12:55:50.411Z,89.90
2023-03-14T12:59:13.559Z,90.60
2023-03-14T13:02:41.900Z,91.50
2023-03-14T13:05:55.775Z,92.50
2023-03-14T13:08:58.116Z,92.20
2023-03-14T13:11:57.079Z,92.10
2023-03-14T13:14:55.775Z,92.80
2023-03-14T13:17:56.602Z,93.00
2023-03-14T13:20:57.729Z,93.20
2023-03-14T13:24:23.434Z,92.90
2023-03-14T13:27:24.539Z,93.00
2023-03-14T13:30:29.222Z,92.90
2023-03-14T13:33:27.735Z,92.90
2023-03-14T13:36:25.545Z,92.90
2023-03-14T13:39:27.187Z,93.00
2023-03-14T13:42:32.164Z,92.90
2023-03-14T13:45:30.338Z,92.80
2023-03-14T13:48:30.622Z,92.80
2023-03-14T13:51:33.066Z,92.80
2023-03-14T13:54:33.588Z,92.80
2023-03-14T13:57:48.180Z,92.70
2023-03-14T14:00:56.936Z,92.80
2023-03-14T14:03:57.425Z,93.10
2023-03-14T14:07:08.779Z,93.10
2023-03-14T14:10:07.713Z,93.20
2023-03-14T14:13:07.949Z,93.20
2023-03-14T14:16:08.324Z,93.20
2023-03-14T14:19:08.881Z,93.30
2023-03-14T14:22:10.037Z,93.30
2023-03-14T14:25:14.664Z,93.20
2023-03-14T14:28:26.551Z,93.30
2023-03-14T14:31:26.732Z,93.30
2023-03-14T14:34:27.684Z,93.50
2023-03-14T14:37:30.015Z,93.60
2023-03-14T14:40:30.783Z,94.20
2023-03-14T14:43:32.235Z,94.30
2023-03-14T14:46:33.900Z,94.20
2023-03-14T14:49:34.509Z,94.10
2023-03-14T14:52:43.060Z,94.20
2023-03-14T14:55:43.820Z,94.20
2023-03-14T14:58:47.972Z,94.30
2023-03-14T15:01:45.840Z,94.40
2023-03-14T15:04:44.223Z,94.50
2023-03-14T15:07:42.278Z,94.50
2023-03-14T15:10:40.452Z,94.50
2023-03-14T15:13:38.406Z,94.50
2023-03-14T15:16:36.689Z,94.60
2023-03-14T15:19:34.675Z,94.70
2023-03-14T15:22:33.347Z,94.70
2023-03-14T15:25:53.572Z,95.00
2023-03-14T15:28:49.235Z,95.00
2023-03-14T15:31:47.206Z,95.00
2023-03-14T15:34:45.454Z,94.90
2023-03-14T15:37:45.416Z,94.90
2023-03-14T15:40:44.129Z,94.50
2023-03-14T15:43:41.964Z,94.00
2023-03-14T15:46:40.039Z,94.10
2023-03-14T15:49:38.112Z,94.20
2023-03-14T15:52:36.036Z,94.10
2023-03-14T15:55:33.940Z,94.20
2023-03-14T15:58:35.580Z,94.30
2023-03-14T16:01:33.532Z,94.40
2023-03-14T16:04:31.678Z,94.40
2023-03-14T16:07:30.385Z,94.40
2023-03-14T16:10:30.502Z,94.50
2023-03-14T16:13:31.373Z,94.70
2023-03-14T16:16:29.273Z,95.00
2023-03-14T16:19:32.234Z,94.70
2023-03-14T16:22:31.042Z,94.80
2023-03-14T16:25:28.853Z,95.10
2023-03-14T16:28:27.710Z,95.10
2023-03-14T16:31:26.506Z,95.20
2023-03-14T16:34:24.476Z,95.00
2023-03-14T16:37:24.730Z,94.90
2023-03-14T16:40:22.602Z,95.20
2023-03-14T16:43:20.373Z,95.70
2023-03-14T16:46:19.887Z,95.40
2023-03-14T16:49:18.025Z,95.70
2023-03-14T16:52:16.186Z,95.70
2023-03-14T16:55:14.060Z,95.50
2023-03-14T16:58:12.142Z,95.30
2023-03-14T17:01:12.760Z,95.50
2023-03-14T17:04:11.144Z,95.30
2023-03-14T17:07:09.540Z,95.30
2023-03-14T17:10:07.888Z,95.30
2023-03-14T17:13:05.701Z,95.60
2023-03-14T17:16:04.029Z,96.20
2023-03-14T17:19:01.858Z,96.50
2023-03-14T17:22:21.285Z,96.80
2023-03-14T17:25:17.659Z,96.80
2023-03-14T17:28:15.607Z,96.80
2023-03-14T17:31:17.154Z,96.80
2023-03-14T17:34:15.114Z,96.90
2023-03-14T17:37:13.156Z,96.60
2023-03-14T17:40:11.816Z,96.60
2023-03-14T17:43:09.649Z,95.20
2023-03-14T17:46:12.417Z,94.60
2023-03-14T17:49:10.358Z,93.40
2023-03-14T17:52:09.322Z,92.50
2023-03-14T17:55:08.552Z,92.10
2023-03-14T17:58:06.357Z,91.50
2023-03-14T18:01:17.271Z,91.00
2023-03-14T18:04:15.630Z,90.60
2023-03-14T18:07:19.909Z,90.20
2023-03-14T18:10:17.942Z,90.20
2023-03-14T18:13:15.672Z,89.60
2023-03-14T18:16:14.953Z,88.60
2023-03-14T18:19:12.818Z,86.80
2023-03-14T18:22:10.767Z,85.60
2023-03-14T18:25:10.292Z,88.40
2023-03-14T18:28:08.105Z,85.20
2023-03-14T18:31:11.517Z,87.60
2023-03-14T18:34:09.894Z,85.50
2023-03-14T18:37:07.788Z,84.50
2023-03-14T18:40:09.207Z,84.70
2023-03-14T18:43:06.972Z,82.60
2023-03-14T18:46:04.924Z,81.80
2023-03-14T18:49:04.516Z,82.60
2023-03-14T18:52:02.535Z,84.10
2023-03-14T18:55:00.335Z,83.80
2023-03-14T18:57:58.208Z,84.90
2023-03-14T19:01:00.371Z,85.30
2023-03-14T19:04:02.203Z,85.30
2023-03-14T19:06:59.887Z,84.30
2023-03-14T19:09:57.658Z,80.30
2023-03-14T19:12:55.326Z,80.60
2023-03-14T19:15:53.096Z,81.20
2023-03-14T19:18:52.623Z,80.50
2023-03-14T19:21:50.749Z,79.40
2023-03-14T19:24:48.529Z,78.60
2023-03-14T19:27:46.302Z,78.40
2023-03-14T19:30:44.205Z,79.20
2023-03-14T19:33:43.029Z,79.20
2023-03-14T19:36:40.781Z,78.50
2023-03-14T19:39:38.664Z,75.60
2023-03-14T19:42:36.904Z,75.30
2023-03-14T19:45:37.063Z,74.80
2023-03-14T19:48:35.015Z,76.70
2023-03-14T19:51:35.752Z,76.90
2023-03-14T19:54:36.430Z,76.30
2023-03-14T19:57:34.239Z,74.60
2023-03-14T20:00:32.041Z,76.50
2023-03-14T20:03:29.937Z,75.70
2023-03-14T20:06:27.707Z,76.30
2023-03-14T20:09:25.778Z,77.00
2023-03-14T20:12:23.480Z,77.40
2023-03-14T20:15:22.401Z,77.70
2023-03-14T20:18:20.150Z,76.50
2023-03-14T20:21:17.972Z,77.70
2023-03-14T20:24:16.038Z,76.60
2023-03-14T20:27:13.989Z,76.40
2023-03-14T20:30:14.101Z,77.10
2023-03-14T20:33:13.638Z,75.30
2023-03-14T20:36:11.909Z,73.00
2023-03-14T20:39:10.234Z,71.00
2023-03-14T20:42:07.922Z,72.10
2023-03-14T20:45:06.840Z,71.20
2023-03-14T20:48:04.622Z,69.30
2023-03-14T20:51:02.561Z,69.80
2023-03-14T20:54:00.341Z,67.90
2023-03-14T20:56:58.169Z,66.30
2023-03-14T20:59:56.064Z,66.10
2023-03-14T21:02:59.718Z,64.60
2023-03-14T21:06:07.662Z,66.70
2023-03-14T21:09:05.780Z,66.20
2023-03-14T21:12:24.176Z,65.60
2023-03-14T21:15:28.474Z,65.00
2023-03-14T21:18:29.434Z,64.50
2023-03-14T21:21:27.262Z,65.10
2023-03-14T21:24:52.194Z,64.20
2023-03-14T21:27:50.911Z,63.60
2023-03-14T21:30:48.999Z,64.10
2023-03-14T21:33:55.707Z,61.90
2023-03-14T21:37:02.173Z,60.10
2023-03-14T21:40:03.168Z,58.20
2023-03-14T21:43:01.963Z,59.60
2023-03-14T21:46:08.599Z,60.20
2023-03-14T21:49:06.335Z,61.10
2023-03-14T21:52:11.580Z,61.20
2023-03-14T21:55:18.792Z,61.70
2023-03-14T21:58:36.285Z,62.20
2023-03-14T22:01:34.122Z,61.50
2023-03-14T22:04:36.064Z,61.60
2023-03-14T22:07:33.820Z,61.10
2023-03-14T22:10:31.692Z,60.70
2023-03-14T22:13:29.402Z,60.90
2023-03-14T22:16:27.279Z,60.30
2023-03-14T22:19:26.506Z,61.50
2023-03-14T22:22:24.530Z,61.70
2023-03-14T22:25:22.389Z,60.80
2023-03-14T22:28:20.394Z,61.50
2023-03-14T22:31:18.627Z,61.40
2023-03-14T22:34:16.705Z,61.10
2023-03-14T22:37:15.241Z,60.20
2023-03-14T22:40:14.248Z,60.00
2023-03-14T22:43:12.021Z,59.40
2023-03-14T22:46:10.985Z,59.30
2023-03-14T22:49:08.795Z,58.20
2023-03-14T22:52:06.737Z,58.10
2023-03-14T22:55:06.921Z,56.80
2023-03-14T22:58:05.093Z,54.60
2023-03-14T23:01:03.388Z,54.00
2023-03-14T23:04:03.535Z,54.10
2023-03-14T23:07:01.288Z,54.10
2023-03-14T23:09:59.103Z,54.20
2023-03-14T23:12:57.973Z,52.60
2023-03-14T23:15:55.965Z,51.30
2023-03-14T23:18:53.641Z,50.50
2023-03-14T23:21:51.571Z,49.40
2023-03-14T23:24:50.517Z,49.30
2023-03-14T23:27:48.546Z,48.60
2023-03-14T23:30:46.456Z,48.50
2023-03-14T23:33:45.832Z,47.90
2023-03-14T23:36:46.574Z,48.30
2023-03-14T23:39:46.485Z,47.10
2023-03-14T23:42:44.469Z,46.90
2023-03-14T23:45:42.482Z,46.10
2023-03-14T23:48:41.148Z,46.30
2023-03-14T23:51:39.074Z,45.60
2023-03-14T23:54:37.659Z,45.80
2023-03-14T23:57:35.610Z,44.30
